createdAt,value
2023-03-26T00:00:03.297Z,9
2023-03-26T00:01:02.113Z,9
2023-03-26T00:02:02.010Z,9
2023-03-26T00:03:02.049Z,8.8
2023-03-26T00:04:01.899Z,9
2023-03-26T00:05:01.818Z,9
2023-03-26T00:06:01.894Z,9
2023-03-26T00:07:01.733Z,9
2023-03-26T00:08:01.736Z,9
2023-03-26T00:09:01.583Z,9.1
2023-03-26T00:10:01.620Z,8.9
2023-03-26T00:11:01.455Z,9
2023-03-26T00:12:01.445Z,9
2023-03-26T00:13:01.424Z,8.9
2023-03-26T00:14:01.383Z,9
2023-03-26T00:15:01.296Z,9
2023-03-26T00:16:02.374Z,8.9
2023-03-26T00:17:01.289Z,8.9
2023-03-26T00:18:02.322Z,8.7
2023-03-26T00:19:02.215Z,8.8
2023-03-26T00:20:02.298Z,9
2023-03-26T00:21:02.165Z,9
2023-03-26T00:22:02.226Z,8.8
2023-03-26T00:23:02.088Z,8.7
2023-03-26T00:24:02.179Z,8.7
2023-03-26T00:25:02.064Z,8.8
2023-03-26T00:26:02.147Z,8.6
2023-03-26T00:27:02.002Z,8.5
2023-03-26T00:28:01.922Z,8.8
2023-03-26T00:29:02.039Z,8.7
2023-03-26T00:30:01.863Z,8.6
2023-03-26T00:31:01.805Z,8.6
2023-03-26T00:32:01.762Z,8.7
2023-03-26T00:33:01.880Z,8.7
2023-03-26T00:34:01.724Z,8.6
2023-03-26T00:35:01.781Z,8.4
2023-03-26T00:36:03.240Z,8.5
2023-03-26T00:37:01.343Z,8.5
2023-03-26T00:38:02.368Z,8.6
2023-03-26T00:39:02.224Z,8.5
2023-03-26T00:40:02.244Z,8.4
2023-03-26T00:41:02.172Z,8.6
2023-03-26T00:42:02.202Z,8.5
2023-03-26T00:43:02.070Z,8.5
2023-03-26T00:44:02.097Z,8.5
2023-03-26T00:45:01.987Z,8.6
2023-03-26T00:46:01.956Z,8.5
2023-03-26T00:47:01.995Z,8.6
2023-03-26T00:48:02.787Z,8.5
2023-03-26T00:49:01.734Z,8.4
2023-03-26T00:50:01.705Z,8.5
2023-03-26T00:51:01.520Z,8.4
2023-03-26T00:52:01.561Z,8.5
2023-03-26T00:53:01.418Z,8.4
2023-03-26T00:54:01.411Z,8.5
2023-03-26T00:55:01.326Z,8.5
2023-03-26T00:56:02.386Z,8.4
2023-03-26T00:57:02.382Z,8.5
2023-03-26T00:58:02.248Z,8.6
2023-03-26T00:59:02.191Z,8.6
2023-03-26T01:00:02.299Z,8.5
2023-03-26T01:01:02.268Z,8.3
2023-03-26T01:02:02.192Z,8.5
2023-03-26T01:03:02.292Z,8.5
2023-03-26T01:04:08.553Z,8.4
2023-03-26T01:05:02.244Z,8.5
2023-03-26T01:06:02.316Z,8.4
2023-03-26T01:07:02.158Z,8.4
2023-03-26T01:08:02.294Z,8.5
2023-03-26T01:09:02.169Z,8.3
2023-03-26T01:10:02.151Z,8.4
2023-03-26T01:11:02.046Z,8.4
2023-03-26T01:12:02.117Z,8.4
2023-03-26T01:13:01.948Z,8.4
2023-03-26T01:14:01.914Z,8.1
2023-03-26T01:15:01.962Z,8.3
2023-03-26T01:16:01.883Z,8.4
2023-03-26T01:17:02.052Z,8.3
2023-03-26T01:18:02.115Z,8.1
2023-03-26T01:19:01.943Z,8.1
2023-03-26T01:20:01.875Z,8.1
2023-03-26T01:21:01.902Z,8.2
2023-03-26T01:22:01.731Z,8.2
2023-03-26T01:23:01.928Z,8.2
2023-03-26T01:24:01.988Z,8.1
2023-03-26T01:25:01.863Z,8.2
2023-03-26T01:26:01.860Z,8.3
2023-03-26T01:27:01.883Z,8.2
2023-03-26T01:28:01.751Z,8.2
2023-03-26T01:29:01.805Z,8.3
2023-03-26T01:30:01.649Z,8.1
2023-03-26T01:31:01.642Z,8.1
2023-03-26T01:32:01.451Z,8.1
2023-03-26T01:33:01.582Z,7.9
2023-03-26T01:34:01.556Z,8
2023-03-26T01:35:01.555Z,8.1
2023-03-26T01:36:01.469Z,8
2023-03-26T01:37:01.473Z,8.1
2023-03-26T01:38:01.318Z,8
2023-03-26T01:39:02.380Z,8
2023-03-26T01:40:02.214Z,8
2023-03-26T01:41:02.265Z,7.9
2023-03-26T01:42:02.217Z,8
2023-03-26T01:43:02.244Z,8
2023-03-26T01:44:02.145Z,8.1
2023-03-26T01:45:02.240Z,8
2023-03-26T01:46:02.099Z,8.1
2023-03-26T01:47:01.992Z,7.9
2023-03-26T01:48:02.088Z,7.8
2023-03-26T01:49:01.874Z,8
2023-03-26T01:50:01.825Z,8
2023-03-26T01:51:01.855Z,7.9
2023-03-26T01:52:01.695Z,8
2023-03-26T01:53:01.745Z,8
2023-03-26T01:54:01.686Z,8
2023-03-26T01:55:01.584Z,8
2023-03-26T01:56:01.492Z,7.9
2023-03-26T01:57:01.492Z,7.9
2023-03-26T01:58:01.382Z,8
2023-03-26T01:59:01.414Z,7.9
2023-03-26T02:00:02.330Z,7.9
2023-03-26T02:01:02.274Z,7.9
2023-03-26T02:02:02.205Z,7.9
2023-03-26T02:03:02.259Z,7.9
2023-03-26T02:04:02.127Z,8
2023-03-26T02:05:02.216Z,8.1
2023-03-26T02:06:02.098Z,8.1
2023-03-26T02:07:02.132Z,8
2023-03-26T02:08:01.986Z,8
2023-03-26T02:09:01.952Z,8
2023-03-26T02:10:01.999Z,8
2023-03-26T02:11:01.847Z,8
2023-03-26T02:12:01.782Z,8
2023-03-26T02:13:01.817Z,8
2023-03-26T02:14:01.672Z,8.1
2023-03-26T02:15:01.680Z,8.1
2023-03-26T02:16:01.527Z,8
2023-03-26T02:17:01.576Z,8.1
2023-03-26T02:18:01.598Z,8.1
2023-03-26T02:19:01.439Z,8.2
2023-03-26T02:20:01.485Z,8.1
2023-03-26T02:21:01.328Z,8.1
2023-03-26T02:22:01.431Z,8.3
2023-03-26T02:23:01.298Z,8.3
2023-03-26T02:24:02.367Z,8.3
2023-03-26T02:25:01.545Z,8.1
2023-03-26T02:26:01.596Z,8.1
2023-03-26T02:27:01.466Z,8.1
2023-03-26T02:28:01.532Z,8.3
2023-03-26T02:29:01.391Z,8.4
2023-03-26T02:30:01.408Z,8.2
2023-03-26T02:31:01.270Z,8.2
2023-03-26T02:32:01.462Z,8.2
2023-03-26T02:33:01.500Z,8.1
2023-03-26T02:34:01.379Z,8.1
2023-03-26T02:35:01.386Z,8.1
2023-03-26T02:36:02.395Z,8.1
2023-03-26T02:37:01.312Z,8.1
2023-03-26T02:38:02.664Z,8
2023-03-26T02:39:01.295Z,8
2023-03-26T02:40:01.365Z,8.1
2023-03-26T02:41:02.315Z,8
2023-03-26T02:42:02.169Z,8.1
2023-03-26T02:43:02.244Z,8.1
2023-03-26T02:44:02.117Z,8.1
2023-03-26T02:45:02.134Z,8
2023-03-26T02:46:02.102Z,8
2023-03-26T02:47:01.400Z,8
2023-03-26T02:48:01.531Z,8.1
2023-03-26T02:49:01.368Z,8.2
2023-03-26T02:50:01.423Z,8.2
2023-03-26T02:51:01.399Z,8.1
2023-03-26T02:52:01.393Z,8.1
2023-03-26T02:53:01.340Z,8.1
2023-03-26T02:54:01.352Z,8.2
2023-03-26T02:55:01.238Z,8.2
2023-03-26T02:56:02.274Z,8.1
2023-03-26T02:57:02.213Z,8
2023-03-26T02:58:02.252Z,8.2
2023-03-26T02:59:02.121Z,8.1
2023-03-26T03:00:02.332Z,8.1
2023-03-26T03:01:02.226Z,8.1
2023-03-26T03:02:01.290Z,8
2023-03-26T03:03:02.418Z,8.1
2023-03-26T03:04:01.368Z,8
2023-03-26T03:05:01.555Z,8.1
2023-03-26T03:06:01.502Z,8.1
2023-03-26T03:07:01.544Z,8
2023-03-26T03:08:01.394Z,8.1
2023-03-26T03:09:01.402Z,8.1
2023-03-26T03:10:01.295Z,8.1
2023-03-26T03:11:02.349Z,8
2023-03-26T03:12:02.357Z,8.1
2023-03-26T03:13:02.305Z,8.1
2023-03-26T03:14:01.277Z,8
2023-03-26T03:15:02.283Z,8.1
2023-03-26T03:16:02.242Z,8.2
2023-03-26T03:17:02.311Z,8.1
2023-03-26T03:18:02.402Z,8.1
2023-03-26T03:19:02.231Z,8
2023-03-26T03:20:02.303Z,8.1
2023-03-26T03:21:02.182Z,8.1
2023-03-26T03:22:02.281Z,8.1
2023-03-26T03:23:02.154Z,8.1
2023-03-26T03:24:02.201Z,8.1
2023-03-26T03:25:02.054Z,8.2
2023-03-26T03:26:02.120Z,8.2
2023-03-26T03:27:01.964Z,8.1
2023-03-26T03:28:01.915Z,8
2023-03-26T03:29:02.052Z,8
2023-03-26T03:30:01.786Z,8.1
2023-03-26T03:31:01.760Z,8.1
2023-03-26T03:32:02.015Z,8.2
2023-03-26T03:33:02.048Z,8
2023-03-26T03:34:01.970Z,8
2023-03-26T03:35:01.889Z,8.1
2023-03-26T03:36:02.019Z,8.1
2023-03-26T03:37:01.807Z,8
2023-03-26T03:38:01.774Z,8
2023-03-26T03:39:01.795Z,8.2
2023-03-26T03:40:01.625Z,8
2023-03-26T03:41:01.683Z,7.9
2023-03-26T03:42:01.528Z,8
2023-03-26T03:43:01.562Z,7.9
2023-03-26T03:44:01.403Z,7.8
2023-03-26T03:45:01.362Z,8
2023-03-26T03:46:02.394Z,7.9
2023-03-26T03:47:02.258Z,7.8
2023-03-26T03:48:02.350Z,7.8
2023-03-26T03:49:02.196Z,8
2023-03-26T03:50:02.280Z,7.8
2023-03-26T03:51:02.120Z,7.9
2023-03-26T03:52:02.157Z,7.9
2023-03-26T03:53:02.046Z,7.9
2023-03-26T03:54:02.036Z,7.9
2023-03-26T03:55:01.958Z,8
2023-03-26T03:56:01.881Z,7.9
2023-03-26T03:57:02.057Z,7.9
2023-03-26T03:58:01.913Z,7.8
2023-03-26T03:59:01.876Z,7.9
2023-03-26T04:00:01.868Z,7.9
2023-03-26T04:01:01.437Z,7.9
2023-03-26T04:02:01.578Z,8
2023-03-26T04:03:01.700Z,7.9
2023-03-26T04:04:01.707Z,7.8
2023-03-26T04:05:01.925Z,7.9
2023-03-26T04:06:01.954Z,8
2023-03-26T04:07:01.780Z,7.9
2023-03-26T04:08:01.843Z,8
2023-03-26T04:09:01.740Z,8.1
2023-03-26T04:10:01.733Z,8
2023-03-26T04:11:01.559Z,8
2023-03-26T04:12:01.631Z,8.1
2023-03-26T04:13:01.503Z,8.1
2023-03-26T04:14:01.532Z,8
2023-03-26T04:15:01.394Z,8.1
2023-03-26T04:16:01.337Z,8
2023-03-26T04:17:01.300Z,7.9
2023-03-26T04:18:02.396Z,8
2023-03-26T04:19:02.227Z,8
2023-03-26T04:20:02.292Z,8.1
2023-03-26T04:21:02.123Z,8.2
2023-03-26T04:22:02.205Z,8
2023-03-26T04:23:02.060Z,8.1
2023-03-26T04:24:02.110Z,8
2023-03-26T04:25:01.977Z,8.1
2023-03-26T04:26:01.942Z,8
2023-03-26T04:27:01.952Z,8
2023-03-26T04:28:01.793Z,8.1
2023-03-26T04:29:01.840Z,7.9
2023-03-26T04:30:01.668Z,7.9
2023-03-26T04:31:01.726Z,7.9
2023-03-26T04:32:01.491Z,7.9
2023-03-26T04:33:01.534Z,8
2023-03-26T04:34:01.475Z,8
2023-03-26T04:35:01.449Z,7.9
2023-03-26T04:36:01.315Z,8
2023-03-26T04:37:02.306Z,8.1
2023-03-26T04:38:02.225Z,7.9
2023-03-26T04:39:02.262Z,8
2023-03-26T04:40:02.165Z,8
2023-03-26T04:41:04.516Z,8
2023-03-26T04:42:01.390Z,8
2023-03-26T04:43:01.435Z,7.9
2023-03-26T04:44:02.362Z,8.1
2023-03-26T04:45:02.251Z,7.9
2023-03-26T04:46:02.341Z,8
2023-03-26T04:47:02.123Z,8.1
2023-03-26T04:48:02.148Z,7.9
2023-03-26T04:49:02.029Z,7.8
2023-03-26T04:50:02.076Z,7.9
2023-03-26T04:51:01.920Z,7.9
2023-03-26T04:52:01.889Z,8
2023-03-26T04:53:01.893Z,8
2023-03-26T04:54:01.819Z,8
2023-03-26T04:55:01.734Z,8
2023-03-26T04:56:01.806Z,8
2023-03-26T04:57:01.678Z,8
2023-03-26T04:58:01.708Z,7.9
2023-03-26T04:59:01.608Z,8
2023-03-26T05:00:02.236Z,7.9
2023-03-26T05:01:10.044Z,7.9
2023-03-26T05:02:01.660Z,8
2023-03-26T05:03:01.763Z,8
2023-03-26T05:04:01.637Z,8
2023-03-26T05:05:01.553Z,8
2023-03-26T05:06:01.483Z,8
2023-03-26T05:07:01.513Z,7.9
2023-03-26T05:08:01.365Z,7.9
2023-03-26T05:09:01.398Z,8
2023-03-26T05:10:02.299Z,7.9
2023-03-26T05:11:02.240Z,8
2023-03-26T05:12:02.265Z,7.9
2023-03-26T05:13:02.139Z,7.9
2023-03-26T05:14:02.179Z,7.9
2023-03-26T05:15:02.062Z,8
2023-03-26T05:16:01.833Z,8
2023-03-26T05:17:02.079Z,7.9
2023-03-26T05:18:02.068Z,7.9
2023-03-26T05:19:02.063Z,8
2023-03-26T05:20:01.915Z,7.8
2023-03-26T05:21:01.875Z,7.9
2023-03-26T05:22:01.881Z,7.9
2023-03-26T05:23:01.758Z,8
2023-03-26T05:24:01.765Z,7.9
2023-03-26T05:25:01.605Z,8
2023-03-26T05:26:01.612Z,7.9
2023-03-26T05:27:01.491Z,8.1
2023-03-26T05:28:01.511Z,8
2023-03-26T05:29:01.412Z,8
2023-03-26T05:30:01.470Z,8
2023-03-26T05:31:01.317Z,7.9
2023-03-26T05:32:02.199Z,7.9
2023-03-26T05:33:02.306Z,8
2023-03-26T05:34:01.379Z,8.1
2023-03-26T05:35:01.425Z,8.1
2023-03-26T05:36:01.478Z,8
2023-03-26T05:37:01.437Z,8.1
2023-03-26T05:38:02.391Z,8
2023-03-26T05:39:02.261Z,8.1
2023-03-26T05:40:02.288Z,8
2023-03-26T05:41:02.150Z,8
2023-03-26T05:42:02.577Z,8
2023-03-26T05:43:02.289Z,8
2023-03-26T05:44:02.290Z,8.1
2023-03-26T05:45:02.243Z,8
2023-03-26T05:46:02.211Z,8
2023-03-26T05:47:02.141Z,8
2023-03-26T05:48:02.204Z,8.1
2023-03-26T05:49:02.080Z,8.1
2023-03-26T05:50:02.138Z,8.1
2023-03-26T05:51:02.119Z,8.1
2023-03-26T05:52:01.951Z,8.1
2023-03-26T05:53:01.997Z,8.1
2023-03-26T05:54:01.839Z,8
2023-03-26T05:55:01.729Z,8.1
2023-03-26T05:56:01.736Z,8.2
2023-03-26T05:57:01.674Z,8.2
2023-03-26T05:58:01.667Z,8.2
2023-03-26T05:59:01.520Z,8.2
2023-03-26T06:00:02.202Z,8.2
2023-03-26T06:01:02.095Z,8.1
2023-03-26T06:02:01.364Z,8.2
2023-03-26T06:03:01.510Z,8.3
2023-03-26T06:04:01.711Z,8.2
2023-03-26T06:05:01.753Z,8.2
2023-03-26T06:06:01.839Z,8.1
2023-03-26T06:07:01.705Z,8.3
2023-03-26T06:08:01.754Z,8.4
2023-03-26T06:09:02.926Z,8.4
2023-03-26T06:10:01.811Z,8.3
2023-03-26T06:11:01.855Z,8.4
2023-03-26T06:12:01.719Z,8.3
2023-03-26T06:13:01.742Z,8.3
2023-03-26T06:14:01.664Z,8.3
2023-03-26T06:15:01.627Z,8.2
2023-03-26T06:16:01.512Z,8.2
2023-03-26T06:17:01.789Z,8.2
2023-03-26T06:18:01.864Z,8.2
2023-03-26T06:19:01.753Z,8.4
2023-03-26T06:20:01.739Z,8.5
2023-03-26T06:21:01.792Z,8.5
2023-03-26T06:22:01.614Z,8.5
2023-03-26T06:23:01.663Z,8.8
2023-03-26T06:24:01.552Z,9
2023-03-26T06:25:01.547Z,8.9
2023-03-26T06:26:01.504Z,9
2023-03-26T06:27:01.495Z,8.9
2023-03-26T06:28:01.372Z,8.9
2023-03-26T06:29:01.412Z,8.8
2023-03-26T06:30:02.396Z,8.9
2023-03-26T06:31:02.308Z,8.9
2023-03-26T06:32:09.329Z,9
2023-03-26T06:33:02.208Z,9
2023-03-26T06:34:02.177Z,8.9
2023-03-26T06:35:02.080Z,9
2023-03-26T06:36:02.186Z,9
2023-03-26T06:37:02.003Z,8.9
2023-03-26T06:38:02.016Z,9
2023-03-26T06:39:01.911Z,8.9
2023-03-26T06:40:01.799Z,8.9
2023-03-26T06:41:01.864Z,8.9
2023-03-26T06:42:01.720Z,8.9
2023-03-26T06:43:08.387Z,8.7
2023-03-26T06:44:01.715Z,8.7
2023-03-26T06:45:01.760Z,8.9
2023-03-26T06:46:01.614Z,8.8
2023-03-26T06:47:01.726Z,8.7
2023-03-26T06:48:01.864Z,8.8
2023-03-26T06:49:01.731Z,8.9
2023-03-26T06:50:01.741Z,9
2023-03-26T06:51:01.567Z,9
2023-03-26T06:52:01.589Z,8.9
2023-03-26T06:53:01.473Z,8.9
2023-03-26T06:54:01.508Z,8.8
2023-03-26T06:55:01.415Z,8.9
2023-03-26T06:56:01.416Z,8.8
2023-03-26T06:57:01.353Z,8.8
2023-03-26T06:58:01.377Z,8.7
2023-03-26T06:59:02.309Z,8.9
2023-03-26T07:00:02.213Z,8.7
2023-03-26T07:03:01.703Z,8.7
2023-03-26T07:04:01.275Z,8.6
2023-03-26T07:05:02.332Z,8.6
2023-03-26T07:06:02.179Z,8.6
2023-03-26T07:07:02.242Z,8.6
2023-03-26T07:08:02.105Z,8.8
2023-03-26T07:09:02.091Z,8.7
2023-03-26T07:10:02.010Z,8.8
2023-03-26T07:11:01.943Z,8.8
2023-03-26T07:12:01.988Z,8.9
2023-03-26T07:13:01.839Z,8.9
2023-03-26T07:14:01.756Z,8.8
2023-03-26T07:15:01.820Z,8.8
2023-03-26T07:16:01.708Z,8.7
2023-03-26T07:17:01.311Z,8.8
2023-03-26T07:18:02.420Z,8.8
2023-03-26T07:19:02.244Z,8.7
2023-03-26T07:20:02.303Z,8.8
2023-03-26T07:21:02.152Z,8.8
2023-03-26T07:22:02.186Z,8.8
2023-03-26T07:23:02.068Z,8.8
2023-03-26T07:24:02.112Z,8.8
2023-03-26T07:25:02.028Z,8.9
2023-03-26T07:26:02.069Z,8.8
2023-03-26T07:27:02.016Z,8.8
2023-03-26T07:28:01.908Z,8.8
2023-03-26T07:29:03.897Z,8.9
2023-03-26T07:30:02.091Z,8.9
2023-03-26T07:31:02.131Z,8.8
2023-03-26T07:32:01.883Z,9
2023-03-26T07:33:01.813Z,8.8
2023-03-26T07:34:01.838Z,9
2023-03-26T07:35:02.063Z,9.1
2023-03-26T07:36:01.921Z,9.1
2023-03-26T07:37:01.940Z,9.1
2023-03-26T07:38:01.774Z,9.3
2023-03-26T07:39:01.772Z,9.2
2023-03-26T07:40:01.649Z,9.2
2023-03-26T07:41:01.716Z,9.2
2023-03-26T07:42:01.571Z,9.4
2023-03-26T07:43:01.702Z,9.4
2023-03-26T07:44:01.737Z,9.4
2023-03-26T07:45:01.720Z,9.4
2023-03-26T07:46:01.757Z,9.5
2023-03-26T07:47:01.619Z,9.5
2023-03-26T07:48:01.640Z,9.3
2023-03-26T07:49:01.474Z,9.4
2023-03-26T07:50:01.453Z,9.4
2023-03-26T07:51:01.354Z,9.5
2023-03-26T07:52:01.438Z,9.6
2023-03-26T07:53:01.341Z,9.5
2023-03-26T07:54:01.454Z,9.4
2023-03-26T07:55:02.392Z,9.7
2023-03-26T07:56:02.220Z,9.8
2023-03-26T07:57:02.434Z,9.6
2023-03-26T07:58:02.073Z,9.7
2023-03-26T07:59:02.128Z,9.6
2023-03-26T08:00:02.766Z,9.7
2023-03-26T08:01:01.583Z,9.8
2023-03-26T08:02:02.165Z,9.7
2023-03-26T08:03:02.255Z,10
2023-03-26T08:04:23.086Z,10
2023-03-26T08:05:01.527Z,10.1
2023-03-26T08:06:01.760Z,10.1
2023-03-26T08:07:01.589Z,10.1
2023-03-26T08:08:01.619Z,9.9
2023-03-26T08:09:01.467Z,10.2
2023-03-26T08:10:01.468Z,10
2023-03-26T08:11:01.370Z,10.2
2023-03-26T08:12:01.422Z,10.2
2023-03-26T08:13:02.410Z,10.1
2023-03-26T08:14:02.252Z,10.3
2023-03-26T08:15:02.315Z,10.1
2023-03-26T08:16:02.171Z,9.9
2023-03-26T08:17:01.571Z,10
2023-03-26T08:18:01.566Z,10
2023-03-26T08:19:01.345Z,9.9
2023-03-26T08:20:01.422Z,10
2023-03-26T08:21:01.312Z,10
2023-03-26T08:22:02.344Z,10.2
2023-03-26T08:23:02.254Z,10
2023-03-26T08:24:02.360Z,10.1
2023-03-26T08:25:02.268Z,10.2
2023-03-26T08:26:02.391Z,10
2023-03-26T08:27:01.390Z,10.1
2023-03-26T08:28:01.476Z,10.2
2023-03-26T08:29:01.324Z,10
2023-03-26T08:30:02.387Z,10.1
2023-03-26T08:31:02.255Z,10.1
2023-03-26T08:32:02.207Z,10
2023-03-26T08:33:02.298Z,10.2
2023-03-26T08:34:02.306Z,10.2
2023-03-26T08:35:02.311Z,10.2
2023-03-26T08:36:02.130Z,10.3
2023-03-26T08:37:02.100Z,10.3
2023-03-26T08:38:01.997Z,10.4
2023-03-26T08:39:02.036Z,10.7
2023-03-26T08:40:01.838Z,11.3
2023-03-26T08:41:01.795Z,11
2023-03-26T08:42:01.784Z,10.9
2023-03-26T08:43:01.707Z,11.1
2023-03-26T08:44:01.709Z,11.1
2023-03-26T08:45:01.583Z,11.5
2023-03-26T08:46:01.597Z,12
2023-03-26T08:47:01.463Z,11.6
2023-03-26T08:48:01.493Z,11.6
2023-03-26T08:49:01.473Z,11.8
2023-03-26T08:50:01.498Z,11.8
2023-03-26T08:51:01.334Z,11.5
2023-03-26T08:52:02.310Z,11.3
2023-03-26T08:53:02.207Z,11.2
2023-03-26T08:54:02.283Z,11.3
2023-03-26T08:55:02.151Z,11.5
2023-03-26T08:56:02.217Z,11.6
2023-03-26T08:57:02.095Z,11.3
2023-03-26T08:58:02.763Z,11.3
2023-03-26T08:59:01.877Z,11.4
2023-03-26T09:00:03.151Z,11.1
2023-03-26T09:01:01.884Z,11.2
2023-03-26T09:02:01.778Z,11.5
2023-03-26T09:03:01.791Z,11.2
2023-03-26T09:04:01.716Z,11.1
2023-03-26T09:05:01.678Z,11
2023-03-26T09:06:01.848Z,10.9
2023-03-26T09:07:01.762Z,10.9
2023-03-26T09:08:01.818Z,10.9
2023-03-26T09:09:01.674Z,10.8
2023-03-26T09:10:01.672Z,11
2023-03-26T09:11:01.481Z,11.2
2023-03-26T09:12:01.544Z,10.8
2023-03-26T09:13:01.365Z,10.8
2023-03-26T09:14:01.413Z,10.7
2023-03-26T09:15:02.367Z,10.8
2023-03-26T09:16:02.273Z,10.8
2023-03-26T09:17:02.326Z,10.8
2023-03-26T09:18:02.362Z,10.7
2023-03-26T09:19:02.204Z,10.7
2023-03-26T09:20:02.317Z,11.3
2023-03-26T09:21:02.145Z,10.7
2023-03-26T09:22:02.212Z,10.2
2023-03-26T09:23:02.059Z,10.1
2023-03-26T09:24:02.104Z,10.2
2023-03-26T09:25:01.962Z,10.3
2023-03-26T09:26:01.872Z,10
2023-03-26T09:27:01.944Z,10.4
2023-03-26T09:28:01.810Z,10.4
2023-03-26T09:29:01.741Z,10.4
2023-03-26T09:30:01.817Z,10.4
2023-03-26T09:31:01.628Z,10.2
2023-03-26T09:32:01.846Z,10.1
2023-03-26T09:33:01.918Z,10.2
2023-03-26T09:34:01.785Z,10.2
2023-03-26T09:35:01.649Z,10.1
2023-03-26T09:36:01.734Z,10
2023-03-26T09:37:01.553Z,10
2023-03-26T09:38:01.613Z,9.9
2023-03-26T09:39:01.495Z,9.9
2023-03-26T09:40:01.492Z,10
2023-03-26T09:41:01.325Z,10
2023-03-26T09:42:02.333Z,9.9
2023-03-26T09:43:02.222Z,10
2023-03-26T09:44:02.315Z,10.1
2023-03-26T09:45:02.196Z,10.2
2023-03-26T09:46:02.259Z,10.2
2023-03-26T09:47:02.158Z,10.1
2023-03-26T09:48:02.244Z,9.9
2023-03-26T09:49:02.069Z,10.2
2023-03-26T09:50:02.131Z,10.1
2023-03-26T09:51:01.975Z,10.1
2023-03-26T09:52:01.915Z,10.1
2023-03-26T09:53:01.964Z,10.2
2023-03-26T09:54:01.799Z,10.3
2023-03-26T09:55:01.757Z,10.1
2023-03-26T09:56:01.806Z,9.9
2023-03-26T09:57:01.690Z,10
2023-03-26T09:58:01.695Z,10.1
2023-03-26T09:59:01.545Z,10.4
2023-03-26T10:00:01.980Z,10.5
2023-03-26T10:01:01.856Z,10.6
2023-03-26T10:02:02.155Z,10.9
2023-03-26T10:03:02.209Z,10.9
2023-03-26T10:04:02.088Z,11.5
2023-03-26T10:05:02.204Z,11.3
2023-03-26T10:06:02.195Z,11.2
2023-03-26T10:07:02.106Z,11
2023-03-26T10:08:02.137Z,10.7
2023-03-26T10:09:01.972Z,10.7
2023-03-26T10:10:01.913Z,10.6
2023-03-26T10:11:01.999Z,10.5
2023-03-26T10:12:01.860Z,10.5
2023-03-26T10:13:11.875Z,10.4
2023-03-26T10:14:01.672Z,10.5
2023-03-26T10:15:01.706Z,10.5
2023-03-26T10:16:01.501Z,10.6
2023-03-26T10:17:01.601Z,10.6
2023-03-26T10:18:01.659Z,10.8
2023-03-26T10:19:01.485Z,11.1
2023-03-26T10:20:01.571Z,10.9
2023-03-26T10:21:01.438Z,11.4
2023-03-26T10:22:01.403Z,11.4
2023-03-26T10:23:01.311Z,11.4
2023-03-26T10:24:02.371Z,11.7
2023-03-26T10:25:02.263Z,11.3
2023-03-26T10:26:02.690Z,11.8
2023-03-26T10:27:08.170Z,12.1
2023-03-26T10:28:01.554Z,12.1
2023-03-26T10:29:01.614Z,12.6
2023-03-26T10:30:01.425Z,12.7
2023-03-26T10:31:01.594Z,12
2023-03-26T10:32:02.331Z,12.3
2023-03-26T10:33:02.259Z,12.1
2023-03-26T10:34:02.249Z,11.9
2023-03-26T10:35:02.147Z,11.9
2023-03-26T10:36:02.192Z,12
2023-03-26T10:37:02.040Z,12
2023-03-26T10:38:02.098Z,11.6
2023-03-26T10:39:01.973Z,11.6
2023-03-26T10:40:01.923Z,11.5
2023-03-26T10:41:01.959Z,11.6
2023-03-26T10:42:01.832Z,11.3
2023-03-26T10:43:01.968Z,11.9
2023-03-26T10:44:08.331Z,11.7
2023-03-26T10:45:01.807Z,11.7
2023-03-26T10:46:01.770Z,11.5
2023-03-26T10:47:01.841Z,11.6
2023-03-26T10:48:01.917Z,11.7
2023-03-26T10:49:01.743Z,11.6
2023-03-26T10:50:01.773Z,11.7
2023-03-26T10:51:01.655Z,11.6
2023-03-26T10:52:01.701Z,11.6
2023-03-26T10:53:01.532Z,11.6
2023-03-26T10:54:01.651Z,11.6
2023-03-26T10:55:01.507Z,11.5
2023-03-26T10:56:01.573Z,11.4
2023-03-26T10:57:01.472Z,11.6
2023-03-26T10:58:01.532Z,11.9
2023-03-26T10:59:01.414Z,11.7
2023-03-26T11:00:01.460Z,12
2023-03-26T11:01:02.598Z,12.6
2023-03-26T11:02:02.003Z,13.2
2023-03-26T11:03:02.072Z,13.4
2023-03-26T11:04:01.987Z,13.2
2023-03-26T11:05:01.960Z,13.1
2023-03-26T11:06:02.005Z,13.2
2023-03-26T11:07:02.768Z,12.8
2023-03-26T11:08:01.753Z,12.5
2023-03-26T11:09:01.804Z,12.8
2023-03-26T11:10:01.639Z,12.7
2023-03-26T11:11:01.685Z,12.8
2023-03-26T11:12:01.623Z,12.8
2023-03-26T11:13:02.249Z,13.1
2023-03-26T11:14:01.486Z,12.7
2023-03-26T11:15:01.508Z,12.5
2023-03-26T11:16:01.351Z,12.9
2023-03-26T11:17:02.103Z,13
2023-03-26T11:18:02.190Z,13
2023-03-26T11:19:03.838Z,12.9
2023-03-26T11:20:01.339Z,12.8
2023-03-26T11:21:18.279Z,13
2023-03-26T11:22:01.459Z,12.9
2023-03-26T11:23:01.462Z,12.6
2023-03-26T11:24:04.571Z,12.9
2023-03-26T11:25:03.906Z,13.4
2023-03-26T11:26:01.392Z,14.2
2023-03-26T11:27:14.727Z,13.8
2023-03-26T11:28:02.194Z,14
2023-03-26T11:29:03.028Z,14.1
2023-03-26T11:30:01.916Z,14.7
2023-03-26T11:31:01.994Z,15.2
2023-03-26T11:32:02.097Z,15.3
2023-03-26T11:33:02.210Z,15.2
2023-03-26T11:34:02.098Z,14.4
2023-03-26T11:35:02.090Z,14.8
2023-03-26T11:36:02.205Z,15.1
2023-03-26T11:37:02.207Z,15.1
2023-03-26T11:38:02.189Z,15.3
2023-03-26T11:39:02.272Z,15.5
2023-03-26T11:40:02.159Z,14.9
2023-03-26T11:41:02.188Z,15.4
2023-03-26T11:42:02.097Z,14.9
2023-03-26T11:43:02.141Z,14.5
2023-03-26T11:44:01.987Z,14.5
2023-03-26T11:45:02.026Z,14.2
2023-03-26T11:46:01.941Z,13.9
2023-03-26T11:47:02.025Z,13.7
2023-03-26T11:48:02.009Z,13.6
2023-03-26T11:49:02.023Z,13.9
2023-03-26T11:50:01.849Z,13.7
2023-03-26T11:51:01.802Z,13.3
2023-03-26T11:52:01.854Z,13.1
2023-03-26T11:53:01.690Z,13.2
2023-03-26T11:54:01.732Z,13.4
2023-03-26T11:55:01.576Z,13.6
2023-03-26T11:56:01.612Z,13.1
2023-03-26T11:57:04.358Z,13.1
2023-03-26T11:58:01.918Z,13.2
2023-03-26T11:59:01.985Z,13.4
2023-03-26T12:00:02.842Z,13.5
2023-03-26T12:01:01.690Z,13.4
2023-03-26T12:02:02.044Z,13.3
2023-03-26T12:03:02.065Z,13.3
2023-03-26T12:04:01.907Z,13.4
2023-03-26T12:05:01.843Z,13.5
2023-03-26T12:06:01.890Z,13.5
2023-03-26T12:07:01.773Z,13.6
2023-03-26T12:08:01.839Z,13.9
2023-03-26T12:09:01.616Z,14.2
2023-03-26T12:10:15.388Z,14.4
2023-03-26T12:11:02.227Z,14
2023-03-26T12:12:02.175Z,13.5
2023-03-26T12:13:02.167Z,13.4
2023-03-26T12:14:02.049Z,13.6
2023-03-26T12:15:02.487Z,13.9
2023-03-26T12:16:02.206Z,13.7
2023-03-26T12:17:01.443Z,13.8
2023-03-26T12:18:02.326Z,14.1
2023-03-26T12:19:02.214Z,14.4
2023-03-26T12:20:02.227Z,14.4
2023-03-26T12:21:02.180Z,14.8
2023-03-26T12:22:02.214Z,14.4
2023-03-26T12:23:02.142Z,14.2
2023-03-26T12:24:02.193Z,13.9
2023-03-26T12:25:02.052Z,14.1
2023-03-26T12:26:02.052Z,14.4
2023-03-26T12:27:01.979Z,14.9
2023-03-26T12:28:01.909Z,14.5
2023-03-26T12:29:01.980Z,14.5
2023-03-26T12:30:01.860Z,14.2
2023-03-26T12:31:02.072Z,14
2023-03-26T12:32:02.063Z,14
2023-03-26T12:33:02.138Z,14
2023-03-26T12:34:01.969Z,14
2023-03-26T12:35:01.876Z,13.9
2023-03-26T12:36:01.899Z,13.9
2023-03-26T12:37:01.809Z,13.9
2023-03-26T12:38:01.742Z,13.7
2023-03-26T12:39:16.109Z,13.7
2023-03-26T12:40:08.423Z,13.8
2023-03-26T12:41:02.008Z,14.2
2023-03-26T12:42:36.818Z,14.1
2023-03-26T12:44:51.934Z,14
2023-03-26T12:44:52.448Z,13.7
2023-03-26T12:46:03.803Z,13.6
2023-03-26T12:47:54.668Z,13.7
2023-03-26T12:48:03.678Z,13.7
2023-03-26T12:49:02.115Z,13.7
2023-03-26T12:50:02.193Z,13.8
2023-03-26T12:51:02.045Z,13.6
2023-03-26T12:52:02.100Z,13.7
2023-03-26T12:53:01.943Z,13.9
2023-03-26T12:54:01.886Z,14.2
2023-03-26T12:55:01.931Z,14.7
2023-03-26T12:56:02.217Z,14.8
2023-03-26T12:57:11.454Z,14.8
2023-03-26T12:58:13.449Z,14.7
2023-03-26T12:59:01.790Z,14.6
2023-03-26T13:00:02.917Z,14.8
2023-03-26T13:01:01.747Z,15.4
2023-03-26T13:02:01.854Z,15.3
2023-03-26T13:03:01.914Z,15.5
2023-03-26T13:04:01.769Z,15.1
2023-03-26T13:05:05.981Z,14.9
2023-03-26T13:06:01.673Z,14.4
2023-03-26T13:07:02.421Z,14.4
2023-03-26T13:08:03.091Z,14.5
2023-03-26T13:09:01.721Z,14.8
2023-03-26T13:10:01.783Z,14.9
2023-03-26T13:11:01.641Z,15.2
2023-03-26T13:12:01.701Z,14.9
2023-03-26T13:13:01.543Z,15.1
2023-03-26T13:14:01.568Z,15.4
2023-03-26T13:15:01.419Z,14.9
2023-03-26T13:16:01.497Z,14.6
2023-03-26T13:17:01.438Z,14.4
2023-03-26T13:18:01.447Z,15
2023-03-26T13:19:01.338Z,15.1
2023-03-26T13:20:02.384Z,15
2023-03-26T13:21:02.249Z,14.9
2023-03-26T13:22:02.305Z,15.1
2023-03-26T13:23:02.176Z,14.7
2023-03-26T13:24:02.269Z,14.6
2023-03-26T13:25:02.125Z,14.9
2023-03-26T13:26:02.169Z,15
2023-03-26T13:27:02.040Z,14.6
2023-03-26T13:28:02.022Z,14.4
2023-03-26T13:29:01.906Z,14.4
2023-03-26T13:30:01.859Z,14.3
2023-03-26T13:31:01.960Z,14.1
2023-03-26T13:32:02.042Z,14.1
2023-03-26T13:33:02.022Z,14.4
2023-03-26T13:34:02.054Z,14.1
2023-03-26T13:35:01.912Z,14.2
2023-03-26T13:36:14.669Z,14.3
2023-03-26T13:37:01.462Z,14.5
2023-03-26T13:38:01.516Z,14.2
2023-03-26T13:39:01.354Z,14.2
2023-03-26T13:40:01.289Z,13.9
2023-03-26T13:41:02.292Z,14.4
2023-03-26T13:42:02.193Z,14.5
2023-03-26T13:43:02.213Z,14.5
2023-03-26T13:44:02.060Z,14.7
2023-03-26T13:45:04.123Z,14.3
2023-03-26T13:46:01.820Z,14.3
2023-03-26T13:47:01.275Z,14.3
2023-03-26T13:48:02.334Z,14
2023-03-26T13:49:02.186Z,14